Main page
METAR-TAF:

METAR-TAF

Airports :

Fairbanks International Airport

Fairbanks, Alaska, United States

latitude: 64-48-14N, longitude: 147-52-34W, elevation: 132 m

Current weather observation

The report was made 35 minutes ago, at 05:53 UTC
Wind 3 kt from the East/Northeast
Temperature 2°C
Humidity 60%
Pressure 996 hPa
Visibility: 16.1 km
Few clouds at a height of 8500 ft
Scattered clouds at a height of 15000 ft
Broken clouds at a height of 20000 ft

METAR: PAFA 210553Z 06003KT 10SM FEW085 SCT150 BKN200 02/M05 A2940 RMK AO2 SLP965 T00171050 10044 20000 56013 PNO

Time: 22:28 (06:28 UTC)

Forecast

The report was made 49 minutes ago, at 05:39 UTC
Forecast valid from 21 at 06 UTC to 22 at 12 UTC
Wind 4 kt from variable directions
Visibility: 10 km
Scattered clouds at a height of 7000 ft
Broken clouds at a height of 15000 ft
Broken clouds at a height of 20000 ft

TAF: PAFA 210539Z 2106/2212 VRB04KT P6SM SCT070 BKN150 BKN200

Weather observations and forecasts of more than 4000 airports (METAR and TAF reports).

The available stations are represented by yellow and red dots on the map.

Hover mouse over dot to see the name of the station.

Then click to see weather observations and forecasts.

To change the map : click on the green buttons with a black cross to zoom in, on the green button with a dash to zoom out, or on the green arrows for adjacent maps.


METAR-TAF: